SEKCJA WYDRUKÓW, pokaż »

METAR EPBY 250800Z 14014KT 100V180 CAVOK 27/09 Q1013=

METAR EPGD 250800Z 15011KT 120V180 CAVOK 24/13 Q1015 =

METAR EPKK 250800Z 07004KT 360V100 CAVOK 25/12 Q1013 =

METAR EPKT 250800Z 12003KT 060V180 CAVOK 25/13 Q1013 =

METAR EPLB 250800Z 12005KT 070V150 CAVOK 27/14 Q1015 =

METAR EPLL 250800Z 10009KT 070V140 CAVOK 25/13 Q1013 =

METAR EPML 250800Z AUTO 09008KT 050V180 9999 NCD 27/12 Q1014=

METAR EPMO 250800Z 10009KT 070V150 CAVOK 27/12 Q1015 =

METAR EPPO 250800Z 10004KT CAVOK 25/14 Q1012 =

METAR EPRA 250800Z NIL=

METAR EPRZ 250800Z 10013KT 9999 FEW043 25/12 Q1014 =

METAR EPSC 250800Z 12004KT 070V170 CAVOK 24/15 Q1012 =

METAR EPSY 250800Z 14009KT 100V180 CAVOK 26/13 Q1016=

METAR EPWA 250800Z 13012KT 100V160 CAVOK 27/11 Q1015 NOSIG=

METAR EPWR 250800Z 18006KT 150V220 9999 FEW040 26/14 Q1012 =

METAR EPZG 250800Z VRB03KT CAVOK 25/15 Q1011 =